Time;durP1;ratioP1;P1;durP2;ratioP2;P2;SDS_P1;SDS_P2;PMS_P1;PMS_P2;Temp;Humidity;BMP_temperature;BMP_pressure;BME280_temperature;BME280_humidity;BME280_pressure;Samples;Min_cycle;Max_cycle;Signal;HPM_P1;HPM_P2
2023/07/26 00:00:09;;;;;;;4.20;3.90;;;;;;;23.73;53.32;100115.81;5059911;28;20032;-71
2023/07/26 00:02:35;;;;;;;4.53;3.53;;;;;;;23.71;53.12;100116.91;5055966;28;20036;-72
2023/07/26 00:05:00;;;;;;;4.07;3.67;;;;;;;23.70;53.57;100115.25;5055191;28;20052;-73
2023/07/26 00:07:25;;;;;;;4.68;4.38;;;;;;;23.68;53.34;100120.69;5056764;28;20047;-72
2023/07/26 00:09:51;;;;;;;4.20;3.80;;;;;;;23.67;53.59;100116.38;5057092;28;20038;-71
2023/07/26 00:12:16;;;;;;;3.90;3.60;;;;;;;23.66;53.34;100111.22;5056652;28;20024;-72
2023/07/26 00:14:42;;;;;;;3.85;3.55;;;;;;;23.65;53.54;100112.19;5057383;28;20044;-72
2023/07/26 00:17:07;;;;;;;3.83;3.42;;;;;;;23.66;53.70;100121.81;5062178;28;21305;-73
2023/07/26 00:19:32;;;;;;;4.57;3.72;;;;;;;23.66;53.47;100122.66;5061585;28;20025;-73
2023/07/26 00:21:58;;;;;;;4.00;3.70;;;;;;;23.67;53.49;100121.69;5057458;28;20029;-71
2023/07/26 00:24:23;;;;;;;4.35;3.78;;;;;;;23.67;53.29;100121.69;5056812;28;20135;-72
2023/07/26 00:26:48;;;;;;;4.97;4.57;;;;;;;23.65;53.33;100130.72;5062120;28;20787;-73
2023/07/26 00:29:14;;;;;;;3.78;3.47;;;;;;;23.64;53.42;100129.06;5063214;28;20622;-71
2023/07/26 00:31:39;;;;;;;4.00;3.70;;;;;;;23.64;53.21;100129.91;5060049;28;20032;-72
2023/07/26 00:34:04;;;;;;;3.85;3.55;;;;;;;23.63;53.21;100122.09;5039482;28;20083;-71
2023/07/26 00:36:30;;;;;;;4.13;3.80;;;;;;;23.63;53.15;100128.22;5060720;28;20113;-72
2023/07/26 00:38:55;;;;;;;3.78;3.45;;;;;;;23.66;53.54;100120.00;5061999;28;20036;-71
2023/07/26 00:41:21;;;;;;;3.83;3.53;;;;;;;23.63;53.53;100117.63;5059608;28;20024;-73
2023/07/26 00:43:46;;;;;;;4.85;4.38;;;;;;;23.64;52.94;100129.06;5055989;28;20016;-73
2023/07/26 00:46:12;;;;;;;3.80;3.50;;;;;;;23.62;53.64;100123.06;5056404;28;21205;-71
2023/07/26 00:51:59;;;;;;;4.00;3.70;;;;;;;23.62;53.03;100126.56;5057124;28;20658;-72
2023/07/26 00:54:25;;;;;;;3.78;3.40;;;;;;;23.56;53.05;100131.56;5054317;28;20032;-72
2023/07/26 00:56:50;;;;;;;3.50;3.30;;;;;;;23.54;52.96;100129.91;5058911;28;20941;-72
2023/07/26 00:59:15;;;;;;;5.22;3.30;;;;;;;23.50;53.19;100136.47;5062066;28;20020;-72
2023/07/26 01:01:41;;;;;;;6.65;3.55;;;;;;;23.53;53.78;100128.22;5055993;28;20036;-74
2023/07/26 01:04:06;;;;;;;3.90;3.60;;;;;;;23.48;53.94;100127.81;5047079;28;20020;-72
2023/07/26 01:06:46;;;;;;;4.82;3.72;;;;;;;23.48;53.55;100125.16;5061499;28;20863;-72
2023/07/26 01:09:52;;;;;;;6.03;3.97;;;;;;;23.48;53.53;100122.53;5059613;28;20060;-73
2023/07/26 01:12:26;;;;;;;6.50;3.63;;;;;;;23.40;53.76;100132.97;5057933;28;20040;-74
2023/07/26 01:14:54;;;;;;;4.60;3.55;;;;;;;23.38;53.99;100137.59;5052477;28;20037;-72
2023/07/26 01:17:19;;;;;;;4.72;3.30;;;;;;;23.37;53.75;100140.34;5057764;28;20028;-71
2023/07/26 01:19:45;;;;;;;4.75;3.50;;;;;;;23.34;54.06;100146.78;5061805;28;20042;-71
2023/07/26 01:22:10;;;;;;;4.45;3.67;;;;;;;23.33;54.00;100139.81;5055048;28;20035;-71
2023/07/26 01:24:35;;;;;;;4.00;3.70;;;;;;;23.34;54.06;100141.47;5054736;28;20079;-73
2023/07/26 01:27:01;;;;;;;4.72;3.40;;;;;;;23.32;54.11;100148.75;5059001;28;20080;-72
2023/07/26 01:29:26;;;;;;;4.43;3.55;;;;;;;23.31;54.30;100146.22;5060494;28;20028;-71
2023/07/26 01:31:52;;;;;;;3.70;3.35;;;;;;;23.31;54.06;100144.41;5063485;28;20034;-73
2023/07/26 01:34:17;;;;;;;3.63;3.33;;;;;;;23.30;53.98;100137.44;5074636;28;20036;-73
2023/07/26 01:36:43;;;;;;;3.90;3.33;;;;;;;23.29;54.03;100146.34;5044443;28;20117;-71
2023/07/26 01:39:09;;;;;;;4.03;3.63;;;;;;;23.29;54.30;100146.34;5059222;28;20089;-73
2023/07/26 01:41:35;;;;;;;3.88;3.35;;;;;;;23.31;54.20;100139.09;5057582;28;20582;-71
2023/07/26 01:44:00;;;;;;;3.17;2.97;;;;;;;23.31;54.15;100147.03;5055153;28;20883;-73
2023/07/26 01:46:26;;;;;;;3.88;3.50;;;;;;;23.30;54.02;100150.69;5058912;28;20139;-74
2023/07/26 01:48:51;;;;;;;3.63;3.33;;;;;;;23.29;54.30;100151.66;5060794;28;20838;-71
2023/07/26 01:51:16;;;;;;;3.72;3.42;;;;;;;23.30;54.20;100147.19;5057815;28;20764;-73
2023/07/26 01:53:43;;;;;;;3.53;3.22;;;;;;;23.27;54.35;100150.97;5049654;28;20939;-73
2023/07/26 01:56:08;;;;;;;3.75;3.45;;;;;;;23.26;54.34;100149.31;5053480;28;20089;-73
2023/07/26 01:58:34;;;;;;;3.70;3.40;;;;;;;23.26;54.26;100150.13;5060717;28;20036;-72
2023/07/26 02:01:01;;;;;;;4.13;3.80;;;;;;;23.26;54.18;100152.78;5060283;28;20051;-73
2023/07/26 02:03:27;;;;;;;4.07;2.95;;;;;;;23.25;54.18;100148.44;5054168;28;20765;-70
2023/07/26 02:05:52;;;;;;;5.18;3.90;;;;;;;23.25;53.95;100153.72;5058683;28;20059;-72
2023/07/26 02:08:18;;;;;;;3.33;3.13;;;;;;;23.25;54.00;100150.25;5059366;28;20044;-73
2023/07/26 02:10:43;;;;;;;6.15;3.17;;;;;;;23.25;54.12;100159.03;5060048;28;20670;-72
2023/07/26 02:13:09;;;;;;;3.33;3.03;;;;;;;23.26;53.95;100162.53;5053703;28;20127;-72
2023/07/26 02:15:34;;;;;;;3.42;3.13;;;;;;;23.25;53.83;100158.19;5057260;28;20128;-71
2023/07/26 02:17:59;;;;;;;3.58;3.20;;;;;;;23.24;54.34;100165.31;5061123;28;20850;-72
2023/07/26 02:20:25;;;;;;;3.63;3.33;;;;;;;23.24;54.07;100167.13;5061113;28;20024;-73
2023/07/26 02:22:51;;;;;;;3.47;3.17;;;;;;;23.24;54.31;100169.78;5054469;28;20028;-71
2023/07/26 02:25:16;;;;;;;3.50;3.20;;;;;;;23.23;54.08;100166.28;5059037;28;20098;-72
2023/07/26 02:27:42;;;;;;;3.60;3.30;;;;;;;23.24;53.86;100161.81;5059986;28;20021;-71
2023/07/26 02:30:07;;;;;;;5.20;3.58;;;;;;;23.24;53.82;100169.78;5043635;28;20392;-72
2023/07/26 02:32:33;;;;;;;4.00;3.25;;;;;;;23.22;54.35;100161.13;5054295;28;20365;-71
2023/07/26 02:34:58;;;;;;;3.42;3.13;;;;;;;23.21;53.97;100162.94;5068602;28;20032;-72
2023/07/26 02:37:54;;;;;;;4.05;3.20;;;;;;;23.22;54.14;100161.97;5058018;28;20039;-71
2023/07/26 02:40:20;;;;;;;3.30;3.00;;;;;;;23.22;54.16;100171.72;5058635;28;20032;-72
2023/07/26 02:42:46;;;;;;;3.40;3.10;;;;;;;23.21;54.27;100176.19;5061300;28;20655;-72
2023/07/26 02:45:11;;;;;;;4.30;3.42;;;;;;;23.22;54.08;100172.56;5071739;28;20476;-73
2023/07/26 02:47:36;;;;;;;3.78;3.13;;;;;;;23.21;53.81;100176.19;5060034;28;20028;-74
2023/07/26 02:50:05;;;;;;;3.35;3.08;;;;;;;23.20;53.98;100174.53;5059971;28;20384;-73
2023/07/26 02:55:52;;;;;;;4.13;2.97;;;;;;;23.20;53.81;100181.59;5056448;28;20069;-70
2023/07/26 02:58:17;;;;;;;3.00;2.75;;;;;;;23.22;53.86;100187.63;5058431;28;20023;-71
2023/07/26 03:00:42;;;;;;;3.38;3.03;;;;;;;23.20;54.19;100192.19;5058026;28;20519;-71
2023/07/26 03:03:08;;;;;;;3.60;3.30;;;;;;;23.20;54.22;100187.78;5034099;28;20950;-73
2023/07/26 03:05:36;;;;;;;3.50;2.88;;;;;;;23.18;54.08;100191.50;5054774;28;20121;-73
2023/07/26 03:08:01;;;;;;;3.55;3.10;;;;;;;23.20;54.02;100202.78;5056738;28;20600;-72
2023/07/26 03:10:27;;;;;;;3.67;2.70;;;;;;;23.19;54.03;100214.38;5057961;28;20081;-72
2023/07/26 03:12:54;;;;;;;3.53;3.22;;;;;;;23.18;53.84;100207.41;5053090;28;20024;-72
2023/07/26 03:15:19;;;;;;;3.58;2.92;;;;;;;23.18;54.12;100207.41;5051642;28;20028;-73
2023/07/26 03:17:45;;;;;;;3.15;2.92;;;;;;;23.18;53.81;100204.75;5057490;28;20060;-73
2023/07/26 03:20:10;;;;;;;2.85;2.65;;;;;;;23.17;54.01;100211.03;5055033;28;20051;-73
2023/07/26 03:22:36;;;;;;;5.18;3.40;;;;;;;23.16;53.79;100212.00;5052619;28;20025;-72
2023/07/26 03:25:01;;;;;;;3.08;2.80;;;;;;;23.14;53.99;100217.44;5061985;28;20048;-74
2023/07/26 03:27:26;;;;;;;3.10;2.90;;;;;;;23.17;53.76;100219.81;5057103;28;20059;-72
2023/07/26 03:29:51;;;;;;;3.30;3.00;;;;;;;23.15;54.10;100223.59;5056518;28;20032;-71
2023/07/26 03:32:17;;;;;;;2.83;2.63;;;;;;;23.16;53.97;100220.78;5052580;28;20520;-72
2023/07/26 03:34:42;;;;;;;3.15;2.95;;;;;;;23.15;53.86;100228.88;5031045;28;20127;-71
2023/07/26 03:37:08;;;;;;;3.40;3.10;;;;;;;23.14;53.84;100233.31;5056904;28;20178;-73
2023/07/26 03:39:33;;;;;;;3.38;2.80;;;;;;;23.14;53.64;100235.13;5058304;28;20031;-71
2023/07/26 03:42:00;;;;;;;3.00;2.70;;;;;;;23.14;53.98;100237.78;5054912;28;20028;-73
2023/07/26 03:44:25;;;;;;;2.70;2.50;;;;;;;23.14;53.97;100237.78;5051646;28;20032;-72
2023/07/26 03:46:50;;;;;;;2.85;2.55;;;;;;;23.14;53.98;100237.78;5058937;28;20426;-73
2023/07/26 03:49:16;;;;;;;2.88;2.67;;;;;;;23.14;53.60;100235.13;5058956;28;20488;-73
2023/07/26 03:51:41;;;;;;;3.60;3.30;;;;;;;23.14;53.51;100237.78;5058804;28;20432;-73
2023/07/26 03:54:06;;;;;;;3.58;3.13;;;;;;;23.15;53.74;100231.53;5059086;28;20036;-74
2023/07/26 03:56:32;;;;;;;5.78;3.10;;;;;;;23.14;53.95;100235.13;5061145;28;20059;-74
2023/07/26 03:58:57;;;;;;;2.85;2.60;;;;;;;23.13;53.73;100238.75;5060384;28;20028;-72
2023/07/26 04:01:22;;;;;;;3.35;3.08;;;;;;;23.14;53.66;100243.06;5059020;28;20088;-73
2023/07/26 04:03:48;;;;;;;3.40;3.20;;;;;;;23.13;53.75;100239.59;5052502;28;20111;-71
2023/07/26 04:06:14;;;;;;;3.00;2.80;;;;;;;23.14;53.86;100230.66;5060047;28;20582;-72
2023/07/26 04:08:40;;;;;;;2.67;2.47;;;;;;;23.13;53.68;100239.59;5060578;28;20423;-72
2023/07/26 04:11:05;;;;;;;3.55;2.80;;;;;;;23.13;53.77;100233.47;5059269;28;20266;-72
2023/07/26 04:14:08;;;;;;;3.00;2.70;;;;;;;23.11;53.69;100235.41;5054858;28;20093;-71
2023/07/26 04:16:33;;;;;;;3.10;2.80;;;;;;;23.11;53.72;100238.06;5059414;28;20115;-72
2023/07/26 04:18:59;;;;;;;3.00;2.70;;;;;;;23.13;53.77;100241.41;5060728;28;20392;-72
2023/07/26 04:21:24;;;;;;;2.88;2.67;;;;;;;23.10;53.46;100231.94;5057770;28;20119;-74
2023/07/26 04:23:49;;;;;;;3.10;2.60;;;;;;;23.11;53.64;100232.78;5052927;28;20457;-74
2023/07/26 04:26:15;;;;;;;3.30;2.88;;;;;;;23.11;53.49;100232.78;5062974;28;20117;-72
2023/07/26 04:28:40;;;;;;;3.20;2.90;;;;;;;23.11;53.33;100240.72;5060197;28;20070;-72
2023/07/26 04:31:06;;;;;;;3.28;2.63;;;;;;;23.11;53.33;100238.06;5058740;28;20455;-72
2023/07/26 04:33:31;;;;;;;3.22;2.92;;;;;;;23.11;53.56;100243.34;5053770;28;20064;-73
2023/07/26 04:35:57;;;;;;;2.83;2.63;;;;;;;23.11;53.27;100256.59;5056796;28;21298;-72
2023/07/26 04:38:25;;;;;;;2.70;2.50;;;;;;;23.11;53.59;100253.94;5060297;28;20036;-72
2023/07/26 04:40:51;;;;;;;2.93;2.73;;;;;;;23.11;53.41;100246.00;5057944;28;20256;-72
2023/07/26 04:43:20;;;;;;;2.90;2.70;;;;;;;23.11;53.41;100244.19;5051792;28;20035;-73
2023/07/26 04:45:46;;;;;;;3.05;2.85;;;;;;;23.10;53.71;100250.47;5066870;28;20200;-71
2023/07/26 04:48:11;;;;;;;2.72;2.53;;;;;;;23.10;53.55;100250.47;5062849;28;20806;-73
2023/07/26 04:50:37;;;;;;;4.13;2.65;;;;;;;23.10;53.46;100262.88;5061060;28;20031;-72
2023/07/26 04:53:02;;;;;;;3.03;2.78;;;;;;;23.09;53.45;100256.75;5064695;28;20028;-73
2023/07/26 04:55:27;;;;;;;3.00;2.42;;;;;;;23.09;53.59;100259.41;5066209;28;20035;-71
2023/07/26 04:57:53;;;;;;;2.83;2.63;;;;;;;23.09;53.62;100266.47;5060360;28;20032;-72
2023/07/26 05:00:18;;;;;;;4.00;2.83;;;;;;;23.17;53.59;100256.88;5061684;28;20036;-72
2023/07/26 05:02:43;;;;;;;3.28;2.72;;;;;;;23.23;53.04;100258.16;5066683;28;20042;-73
2023/07/26 05:05:09;;;;;;;6.03;2.92;;;;;;;23.19;53.21;100267.34;5066650;28;20035;-72
2023/07/26 05:07:34;;;;;;;4.50;2.67;;;;;;;23.35;53.35;100270.31;5062166;28;20031;-70
2023/07/26 05:10:00;;;;;;;2.63;2.53;;;;;;;23.45;53.37;100268.50;5060936;28;20032;-72
2023/07/26 05:12:25;;;;;;;3.28;2.70;;;;;;;23.54;53.52;100283.59;5064124;28;20147;-71
2023/07/26 05:14:50;;;;;;;2.53;2.33;;;;;;;23.58;53.30;100278.84;5056221;28;20032;-72
2023/07/26 05:17:16;;;;;;;4.35;2.97;;;;;;;23.56;53.12;100280.81;5062577;28;20119;-72
2023/07/26 05:19:42;;;;;;;8.02;2.60;;;;;;;23.56;53.24;100287.91;5062126;28;20028;-71
2023/07/26 05:22:07;;;;;;;2.80;2.60;;;;;;;23.59;53.39;100288.47;5057679;28;20392;-70
2023/07/26 05:24:33;;;;;;;2.70;2.50;;;;;;;23.62;53.63;100290.00;5059139;28;20087;-72
2023/07/26 05:26:59;;;;;;;2.90;2.40;;;;;;;23.60;53.42;100291.94;5065790;28;20109;-71
2023/07/26 05:29:25;;;;;;;3.08;2.65;;;;;;;23.64;53.20;100288.09;5062456;28;20086;-71
2023/07/26 05:31:50;;;;;;;2.78;2.58;;;;;;;23.63;53.33;100294.38;5058769;28;20036;-70
2023/07/26 05:34:15;;;;;;;2.55;2.35;;;;;;;23.63;53.37;100297.00;5075555;28;20165;-70
2023/07/26 05:36:41;;;;;;;4.28;2.75;;;;;;;23.64;53.28;100296.03;5062575;28;20047;-73
2023/07/26 05:39:06;;;;;;;3.38;2.53;;;;;;;23.62;53.58;100303.25;5060374;28;20046;-72
2023/07/26 05:41:31;;;;;;;2.70;2.50;;;;;;;23.62;53.35;100303.25;5057113;28;20055;-72
2023/07/26 05:43:59;;;;;;;2.60;2.40;;;;;;;23.61;53.27;100305.09;5063181;28;20143;-73
2023/07/26 05:46:25;;;;;;;3.00;2.70;;;;;;;23.60;53.53;100307.84;5049499;28;20036;-71
2023/07/26 05:48:50;;;;;;;3.53;2.42;;;;;;;23.59;53.41;100301.72;5042224;28;20078;-72
2023/07/26 05:51:15;;;;;;;2.50;2.30;;;;;;;23.58;53.17;100305.34;5057057;28;20032;-70
2023/07/26 05:53:41;;;;;;;2.90;2.45;;;;;;;23.58;53.27;100304.50;5063803;28;20476;-70
2023/07/26 05:56:06;;;;;;;3.45;2.50;;;;;;;23.58;53.42;100305.34;5056553;28;20030;-72
2023/07/26 05:58:32;;;;;;;5.80;2.90;;;;;;;23.57;53.45;100308.13;5061645;28;20029;-73
2023/07/26 06:00:57;;;;;;;4.28;3.00;;;;;;;23.43;52.92;100310.22;5059264;28;20495;-72
2023/07/26 06:03:22;;;;;;;4.07;3.03;;;;;;;23.31;53.60;100311.28;5060203;28;20061;-73
2023/07/26 06:05:48;;;;;;;2.83;2.22;;;;;;;23.25;53.76;100311.81;5058276;28;20070;-73
2023/07/26 06:08:14;;;;;;;4.50;2.47;;;;;;;23.21;53.78;100308.63;5058294;28;20845;-72
2023/07/26 06:10:39;;;;;;;4.90;3.08;;;;;;;23.21;53.87;100308.63;5058947;28;20028;-73
2023/07/26 06:13:05;;;;;;;4.05;2.55;;;;;;;23.20;53.56;100320.19;5053283;28;20020;-73
2023/07/26 06:15:30;;;;;;;3.58;2.42;;;;;;;23.16;53.97;100325.91;5057226;28;20144;-73
2023/07/26 06:17:56;;;;;;;3.75;2.58;;;;;;;23.20;53.33;100327.28;5061312;28;20038;-72
2023/07/26 06:20:21;;;;;;;5.13;2.88;;;;;;;23.18;53.46;100335.38;5059077;28;20058;-72
2023/07/26 06:22:47;;;;;;;2.67;2.42;;;;;;;23.16;53.70;100326.72;5056146;28;20028;-73
2023/07/26 06:25:12;;;;;;;2.97;2.30;;;;;;;23.17;53.98;100322.25;5061492;28;20060;-73
2023/07/26 06:27:38;;;;;;;3.40;2.40;;;;;;;23.17;53.71;100316.97;5060777;28;20113;-72
2023/07/26 06:30:03;;;;;;;2.70;2.50;;;;;;;23.17;53.74;100335.50;5060548;28;20032;-74
2023/07/26 06:32:29;;;;;;;2.90;2.28;;;;;;;23.15;53.55;100326.88;5058326;28;20028;-72
2023/07/26 06:34:56;;;;;;;3.03;2.70;;;;;;;23.16;53.66;100329.38;5061301;28;20115;-73
2023/07/26 06:37:22;;;;;;;3.35;2.75;;;;;;;23.16;53.85;100339.13;5059035;28;20043;-72
2023/07/26 06:39:47;;;;;;;2.67;2.47;;;;;;;23.14;53.68;100335.75;5059540;28;20395;-74
2023/07/26 06:42:12;;;;;;;3.20;2.90;;;;;;;23.15;53.75;100345.41;5055499;28;20024;-73
2023/07/26 06:44:39;;;;;;;4.82;2.65;;;;;;;23.14;53.54;100352.47;5063437;28;20032;-73
2023/07/26 06:47:05;;;;;;;5.25;2.58;;;;;;;23.15;53.80;100351.53;5056861;28;20930;-73
2023/07/26 06:49:31;;;;;;;3.47;2.53;;;;;;;23.14;53.91;100349.84;5042850;28;20043;-72
2023/07/26 06:51:56;;;;;;;2.40;2.20;;;;;;;23.15;53.89;100356.00;5054989;28;20256;-72
2023/07/26 06:54:21;;;;;;;5.25;2.80;;;;;;;23.11;53.93;100344.00;5062244;28;20384;-73
2023/07/26 06:56:47;;;;;;;2.75;2.42;;;;;;;23.14;53.72;100346.34;5040374;28;20139;-73
2023/07/26 06:59:13;;;;;;;2.50;2.30;;;;;;;23.12;53.74;100337.72;5057687;28;20151;-73
2023/07/26 07:01:39;;;;;;;2.63;2.40;;;;;;;23.13;53.56;100350.81;5055918;28;20135;-73
2023/07/26 07:04:04;;;;;;;2.63;2.42;;;;;;;23.13;53.54;100339.38;5059740;28;20757;-73
2023/07/26 07:06:30;;;;;;;2.88;2.20;;;;;;;23.11;53.98;100339.53;5063243;28;20028;-72
2023/07/26 07:08:55;;;;;;;2.60;2.40;;;;;;;23.10;53.72;100340.50;5058541;28;20115;-74
2023/07/26 07:11:20;;;;;;;2.47;2.28;;;;;;;23.11;54.01;100338.69;5054972;28;20035;-72
2023/07/26 07:13:46;;;;;;;2.45;1.98;;;;;;;23.11;53.88;100336.03;5052844;28;20024;-73
2023/07/26 07:16:11;;;;;;;2.63;2.42;;;;;;;23.10;53.61;100347.63;5061382;28;20116;-73
2023/07/26 07:18:37;;;;;;;2.60;2.40;;;;;;;23.09;53.55;100344.13;5060342;28;20036;-74
2023/07/26 07:21:03;;;;;;;2.45;2.25;;;;;;;23.10;53.91;100350.25;5056684;28;20031;-73
2023/07/26 07:23:29;;;;;;;2.40;2.20;;;;;;;23.10;53.84;100348.44;5034914;28;20093;-73
2023/07/26 07:25:55;;;;;;;3.15;2.50;;;;;;;23.10;53.58;100344.97;5056385;28;20072;-73
2023/07/26 07:28:20;;;;;;;2.33;2.13;;;;;;;23.10;53.80;100343.16;5059231;28;20028;-72
2023/07/26 07:30:46;;;;;;;3.88;2.40;;;;;;;23.11;53.80;100350.13;5058213;28;20055;-73
2023/07/26 07:33:11;;;;;;;2.45;2.30;;;;;;;23.10;53.93;100347.63;5053335;28;20030;-72
2023/07/26 07:35:38;;;;;;;2.60;2.40;;;;;;;23.11;53.73;100355.41;5067513;28;21443;-73
2023/07/26 07:38:03;;;;;;;2.70;2.40;;;;;;;23.12;54.04;100348.31;5059523;28;20036;-73
2023/07/26 07:40:29;;;;;;;2.70;2.50;;;;;;;23.12;53.79;100345.66;5059237;28;20443;-73
2023/07/26 07:42:54;;;;;;;2.55;2.35;;;;;;;23.14;53.47;100354.31;5070955;28;20525;-74
2023/07/26 07:45:19;;;;;;;3.30;2.30;;;;;;;23.13;53.77;100356.13;5053251;28;20657;-72
2023/07/26 07:47:45;;;;;;;2.90;2.28;;;;;;;23.14;53.86;100355.13;5060622;28;20024;-73
2023/07/26 07:50:10;;;;;;;3.35;2.42;;;;;;;23.14;53.62;100355.13;5058608;28;20036;-73
2023/07/26 07:52:36;;;;;;;2.78;2.58;;;;;;;23.14;53.43;100355.13;5061965;28;20106;-73
2023/07/26 07:55:01;;;;;;;2.65;2.22;;;;;;;23.15;53.59;100356.00;5052971;28;20035;-74
2023/07/26 07:57:27;;;;;;;2.10;2.00;;;;;;;23.14;53.71;100354.31;5061008;28;20135;-73
2023/07/26 07:59:52;;;;;;;2.40;2.20;;;;;;;23.14;53.92;100360.44;5061472;28;20081;-73
2023/07/26 08:02:17;;;;;;;2.88;2.58;;;;;;;23.14;53.61;100355.13;5054886;28;21522;-73
2023/07/26 08:04:43;;;;;;;3.47;2.63;;;;;;;23.16;53.56;100368.25;5057877;28;20036;-72
2023/07/26 08:07:08;;;;;;;2.30;2.10;;;;;;;23.15;53.87;100367.44;5059388;28;20035;-73
2023/07/26 08:09:34;;;;;;;2.88;2.53;;;;;;;23.16;53.73;100368.25;5059719;28;20102;-73
2023/07/26 08:12:00;;;;;;;2.25;2.15;;;;;;;23.16;53.54;100370.91;5060670;28;20063;-72
2023/07/26 08:14:26;;;;;;;3.28;2.30;;;;;;;23.15;53.74;100366.59;5052271;28;20666;-73
2023/07/26 08:16:52;;;;;;;2.03;1.92;;;;;;;23.14;53.71;100365.72;5059571;28;20032;-73
2023/07/26 08:19:17;;;;;;;2.47;2.38;;;;;;;23.14;53.92;100365.72;5058960;28;20072;-73
2023/07/26 08:21:42;;;;;;;3.05;2.63;;;;;;;23.13;53.72;100364.06;5060653;28;20055;-74
2023/07/26 08:24:23;;;;;;;2.65;2.20;;;;;;;23.13;53.80;100360.56;5060315;28;20071;-73
2023/07/26 08:30:10;;;;;;;3.10;2.30;;;;;;;23.13;53.48;100363.22;5058971;28;20153;-73
2023/07/26 08:32:36;;;;;;;2.28;2.15;;;;;;;23.14;53.60;100363.09;5056758;28;20618;-73
2023/07/26 08:35:01;;;;;;;2.70;2.50;;;;;;;23.15;53.40;100361.28;5058476;28;20028;-73
2023/07/26 08:37:26;;;;;;;2.67;2.47;;;;;;;23.15;53.46;100366.59;5062250;28;21051;-73
2023/07/26 08:39:52;;;;;;;2.78;2.20;;;;;;;23.14;53.57;100362.25;5061764;28;20848;-72
2023/07/26 08:42:17;;;;;;;2.67;2.10;;;;;;;23.14;53.82;100367.53;5039196;28;20124;-73
2023/07/26 08:44:44;;;;;;;2.35;2.15;;;;;;;23.16;53.53;100369.09;5055559;28;20097;-73
2023/07/26 08:47:10;;;;;;;2.92;2.60;;;;;;;23.14;53.32;100364.91;5060727;28;20044;-73
2023/07/26 08:49:36;;;;;;;2.38;2.17;;;;;;;23.16;53.74;100368.25;5061248;28;20035;-73
2023/07/26 08:52:02;;;;;;;2.80;2.30;;;;;;;23.16;53.32;100370.91;5039425;28;20369;-73
2023/07/26 08:54:28;;;;;;;2.45;2.25;;;;;;;23.16;53.44;100371.75;5070041;28;20058;-73
2023/07/26 08:56:54;;;;;;;2.47;2.05;;;;;;;23.15;53.18;100372.72;5064930;28;20539;-73
2023/07/26 08:59:19;;;;;;;2.22;2.03;;;;;;;23.15;53.68;100362.13;5063185;28;20387;-72
2023/07/26 09:01:45;;;;;;;2.30;2.10;;;;;;;23.16;53.46;100374.41;5058115;28;20204;-73
2023/07/26 09:04:10;;;;;;;2.13;1.92;;;;;;;23.16;53.46;100366.44;5056747;28;20070;-73
2023/07/26 09:06:40;;;;;;;2.10;2.00;;;;;;;23.17;53.43;100365.47;5065913;28;20824;-73
2023/07/26 09:09:06;;;;;;;2.33;2.22;;;;;;;23.19;53.47;100367.97;5060781;28;20056;-73
2023/07/26 09:11:31;;;;;;;2.47;2.22;;;;;;;23.18;53.35;100361.00;5058518;28;20059;-72
2023/07/26 09:13:59;;;;;;;2.00;1.90;;;;;;;23.17;53.18;100356.69;5055708;28;20484;-72
2023/07/26 09:16:29;;;;;;;2.53;2.33;;;;;;;23.16;53.07;100366.44;5059970;28;20031;-72
2023/07/26 09:19:02;;;;;;;3.25;2.20;;;;;;;23.18;53.24;100368.97;5061484;28;20033;-73
2023/07/26 09:21:30;;;;;;;2.42;2.15;;;;;;;23.16;53.28;100366.44;5042414;28;20523;-73
2023/07/26 09:23:56;;;;;;;2.22;2.13;;;;;;;23.14;53.45;100365.72;5063563;28;20089;-72
2023/07/26 09:26:42;;;;;;;2.10;2.00;;;;;;;23.15;53.37;100362.13;5067479;28;20380;-74
2023/07/26 09:29:12;;;;;;;2.30;2.00;;;;;;;23.15;53.52;100367.44;5060526;28;20092;-72
2023/07/26 09:31:39;;;;;;;2.53;2.33;;;;;;;23.17;53.04;100362.00;5063553;28;20031;-72
2023/07/26 09:34:08;;;;;;;2.50;2.30;;;;;;;23.16;53.47;100365.63;5059635;28;20778;-73
2023/07/26 09:36:48;;;;;;;2.60;2.40;;;;;;;23.13;53.12;100363.22;5042946;28;20028;-73
2023/07/26 09:39:14;;;;;;;2.40;2.13;;;;;;;23.15;53.31;100363.94;5061541;28;20055;-73
2023/07/26 09:41:39;;;;;;;1.90;1.80;;;;;;;23.14;52.92;100359.59;5060084;28;20746;-74
2023/07/26 09:44:06;;;;;;;2.00;1.90;;;;;;;23.15;53.18;100358.66;5053342;28;20568;-73
2023/07/26 09:46:46;;;;;;;2.00;1.85;;;;;;;23.15;53.33;100353.34;5059036;28;20036;-73
2023/07/26 09:49:11;;;;;;;2.13;2.03;;;;;;;23.16;53.09;100357.69;5058668;28;20016;-73
2023/07/26 09:51:38;;;;;;;1.90;1.80;;;;;;;23.16;53.05;100360.31;5055517;28;20073;-72
2023/07/26 09:54:04;;;;;;;2.20;2.03;;;;;;;23.18;53.23;100345.97;5063471;28;20020;-72
2023/07/26 09:56:33;;;;;;;2.50;2.30;;;;;;;23.17;53.13;100349.59;5057160;28;20035;-73
2023/07/26 09:58:59;;;;;;;2.58;2.38;;;;;;;23.17;53.03;100339.00;5060045;28;20028;-73
2023/07/26 10:01:24;;;;;;;2.67;2.10;;;;;;;23.18;53.19;100339.81;5056777;28;20921;-72
2023/07/26 10:03:52;;;;;;;2.13;2.03;;;;;;;23.17;53.17;100341.63;5061930;28;20044;-72
2023/07/26 10:06:18;;;;;;;2.30;2.10;;;;;;;23.17;53.14;100343.44;5058720;28;21185;-73
2023/07/26 10:08:45;;;;;;;1.90;1.80;;;;;;;23.16;53.33;100341.78;5060088;28;20473;-72
2023/07/26 10:11:13;;;;;;;1.98;1.88;;;;;;;23.16;53.35;100337.31;5058833;28;20039;-72
2023/07/26 10:13:44;;;;;;;1.90;1.80;;;;;;;23.15;52.97;100334.81;5053558;28;20039;-72
2023/07/26 10:16:09;;;;;;;2.10;2.00;;;;;;;23.16;53.13;100337.31;5052709;28;20024;-73
2023/07/26 10:18:35;;;;;;;2.15;1.95;;;;;;;23.14;53.26;100333.94;5059032;28;20796;-72
2023/07/26 10:21:01;;;;;;;2.00;1.90;;;;;;;23.13;52.85;100329.63;5058888;28;20032;-73
2023/07/26 10:23:29;;;;;;;2.50;2.30;;;;;;;23.14;53.30;100323.34;5073493;28;20024;-73
2023/07/26 10:25:55;;;;;;;2.03;1.92;;;;;;;23.13;52.89;100326.16;5067032;28;20028;-73
2023/07/26 10:28:20;;;;;;;1.98;1.88;;;;;;;23.14;53.11;100327.81;5059661;28;20392;-72
2023/07/26 10:30:46;;;;;;;3.08;2.10;;;;;;;23.13;53.00;100320.84;5061523;28;20035;-73
2023/07/26 10:33:12;;;;;;;1.85;1.75;;;;;;;23.13;53.20;100320.84;5061700;28;20028;-73
2023/07/26 10:35:41;;;;;;;1.88;1.77;;;;;;;23.13;52.80;100331.44;5057062;28;20862;-72
2023/07/26 10:38:06;;;;;;;2.27;1.93;;;;;;;23.14;53.04;100328.66;5060606;28;20373;-72
2023/07/26 10:40:39;;;;;;;2.00;1.90;;;;;;;23.16;53.05;100332.03;5059539;28;20298;-72
2023/07/26 10:43:20;;;;;;;1.92;1.83;;;;;;;23.15;53.05;100327.72;5070256;28;20064;-72
2023/07/26 10:45:48;;;;;;;2.17;1.75;;;;;;;23.16;52.87;100328.53;5063093;28;20024;-73
2023/07/26 10:48:20;;;;;;;2.38;2.17;;;;;;;23.16;52.92;100331.19;5059520;28;20040;-72
2023/07/26 10:50:45;;;;;;;2.10;2.00;;;;;;;23.15;52.79;100330.34;5060225;28;20059;-73
2023/07/26 10:53:46;;;;;;;1.95;1.85;;;;;;;23.16;52.63;100328.53;5061663;28;20680;-74
2023/07/26 10:56:17;;;;;;;1.90;1.80;;;;;;;23.15;52.89;100334.81;4991936;28;20736;-72
2023/07/26 10:58:54;;;;;;;1.95;1.85;;;;;;;23.15;52.96;100338.28;5045884;28;20036;-72
2023/07/26 11:01:40;;;;;;;2.00;1.90;;;;;;;23.16;52.43;100328.53;5056978;28;20034;-72
2023/07/26 11:04:21;;;;;;;2.15;2.05;;;;;;;23.15;52.51;100330.34;5052129;28;20043;-73
2023/07/26 11:06:57;;;;;;;1.90;1.80;;;;;;;23.15;52.42;100324.22;5060683;28;20036;-73
2023/07/26 11:09:25;;;;;;;1.90;1.80;;;;;;;23.15;52.83;100319.75;5057592;28;20060;-72
2023/07/26 11:11:58;;;;;;;2.20;2.00;;;;;;;23.14;52.73;100322.53;5056407;28;20033;-73
2023/07/26 11:14:25;;;;;;;1.90;1.70;;;;;;;23.14;52.91;100327.81;5050492;28;20135;-73
2023/07/26 11:16:51;;;;;;;1.88;1.77;;;;;;;23.15;52.61;100326.88;5056620;28;20118;-73
2023/07/26 11:19:16;;;;;;;2.28;2.10;;;;;;;23.16;52.84;100317.94;5058037;28;20500;-72
2023/07/26 11:21:43;;;;;;;1.77;1.67;;;;;;;23.16;52.73;100312.66;5055972;28;20490;-73
2023/07/26 11:24:09;;;;;;;2.53;2.28;;;;;;;23.16;52.57;100312.66;5052983;28;20048;-72
2023/07/26 11:26:45;;;;;;;1.88;1.77;;;;;;;23.16;52.63;100313.47;5059901;28;20033;-71
2023/07/26 11:29:11;;;;;;;1.92;1.83;;;;;;;23.15;52.37;100305.69;5057317;28;20474;-73
2023/07/26 11:31:36;;;;;;;1.85;1.75;;;;;;;23.13;52.89;100304.97;5055377;28;20040;-71